This is the latest recevied weather packets stored in our database for station/object HB9HJL-11. If no packets are shown the sender has not sent any weather packets the latest 10 day(s).
| Time | Temp. | Humidity | Pressure | Rain* | Wind** | Luminosity | Snow |
|---|---|---|---|---|---|---|---|
| 1777184219 | 8.89° C | 56% | 945 hPa | - | - | - | - |
| 1777183319 | 7.22° C | 59% | 946 hPa | - | - | - | - |
| 1777182419 | 6.67° C | 61% | 948 hPa | - | - | - | - |
| 1777181519 | 5.56° C | 64% | 951 hPa | - | - | - | - |
| 1777180618 | 4.44° C | 67% | 953 hPa | - | - | - | - |
| 1777179718 | 3.89° C | 68% | 952 hPa | - | - | - | - |
| 1777178818 | 3.89° C | 69% | 953 hPa | - | - | - | - |
| 1777177918 | 3.89° C | 68% | 953 hPa | - | - | - | - |
| 1777177018 | 3.33° C | 69% | 953 hPa | - | - | - | - |
| 1777176118 | 3.89° C | 68% | 952 hPa | - | - | - | - |
| 1777175218 | 3.89° C | 68% | 952 hPa | - | - | - | - |
| 1777174318 | 3.89° C | 67% | 952 hPa | - | - | - | - |
| 1777173418 | 3.89° C | 67% | 952 hPa | - | - | - | - |
| 1777172517 | 3.89° C | 67% | 953 hPa | - | - | - | - |
| 1777171617 | 4.44° C | 66% | 952 hPa | - | - | - | - |
| 1777170717 | 4.44° C | 65% | 952 hPa | - | - | - | - |
| 1777169817 | 5° C | 64% | 952 hPa | - | - | - | - |
| 1777168917 | 5° C | 64% | 952 hPa | - | - | - | - |
| 1777168017 | 5.56° C | 62% | 951 hPa | - | - | - | - |
| 1777167117 | 5.56° C | 61% | 950 hPa | - | - | - | - |
| 1777166217 | 5.56° C | 61% | 950 hPa | - | - | - | - |
| 1777165317 | 5.56° C | 61% | 950 hPa | - | - | - | - |
| 1777164417 | 6.11° C | 59% | 950 hPa | - | - | - | - |
| 1777163517 | 5.56° C | 60% | 949 hPa | - | - | - | - |
| 1777162617 | 5.56° C | 60% | 949 hPa | - | - | - | - |
* Rain since midnight (hover to see other rain measurements)
** Current wind speed in m/s (hover to see current wind gust speed)